Time;durP1;ratioP1;P1;durP2;ratioP2;P2;SDS_P1;SDS_P2;PMS_P1;PMS_P2;Temp;Humidity;BMP_temperature;BMP_pressure;BME280_temperature;BME280_humidity;BME280_pressure;Samples;Min_cycle;Max_cycle;Signal;HPM_P1;HPM_P2
2023/03/30 00:02:21;;;;;;;5.63;2.30;;;19.60;53.10;;;;;;6213288;23;20597;-65
2023/03/30 00:04:50;;;;;;;6.13;2.60;;;19.70;53.30;;;;;;6213649;23;20201;-64
2023/03/30 00:07:18;;;;;;;9.23;3.63;;;19.60;53.20;;;;;;6213371;23;20189;-64
2023/03/30 00:09:45;;;;;;;5.87;2.60;;;19.60;53.30;;;;;;6213758;23;20337;-66
2023/03/30 00:12:14;;;;;;;5.17;2.97;;;19.60;53.30;;;;;;6213437;23;20213;-65
2023/03/30 00:14:41;;;;;;;7.53;2.83;;;19.60;54.00;;;;;;6212866;23;20177;-64
2023/03/30 00:17:08;;;;;;;7.87;2.97;;;19.60;53.40;;;;;;6212891;23;20296;-65
2023/03/30 00:19:36;;;;;;;6.23;2.40;;;19.60;53.40;;;;;;6213592;23;20808;-65
2023/03/30 00:22:05;;;;;;;8.33;2.53;;;19.60;53.40;;;;;;6213328;23;20626;-64
2023/03/30 00:24:32;;;;;;;5.63;2.87;;;19.60;53.60;;;;;;6213360;23;20288;-64
2023/03/30 00:26:59;;;;;;;9.93;3.03;;;19.50;53.80;;;;;;6213682;23;20177;-64
2023/03/30 00:29:26;;;;;;;4.97;2.83;;;19.50;53.70;;;;;;6212919;23;20178;-65
2023/03/30 00:31:53;;;;;;;6.83;2.63;;;19.50;53.90;;;;;;6213424;23;20178;-66
2023/03/30 00:34:20;;;;;;;5.80;2.50;;;19.50;54.00;;;;;;6213094;23;20686;-65
2023/03/30 00:36:48;;;;;;;8.30;2.40;;;19.50;54.00;;;;;;6213207;23;20184;-64
2023/03/30 00:39:17;;;;;;;5.70;2.53;;;19.50;54.10;;;;;;6213444;23;20734;-65
2023/03/30 00:41:45;;;;;;;5.87;2.60;;;19.40;54.10;;;;;;6213083;23;20200;-65
2023/03/30 00:44:45;;;;;;;8.90;2.90;;;19.40;54.20;;;;;;6213287;23;20264;-64
2023/03/30 00:47:12;;;;;;;7.43;2.80;;;19.40;54.20;;;;;;6212987;23;20178;-64
2023/03/30 00:49:40;;;;;;;7.23;2.47;;;19.40;54.20;;;;;;6213156;23;20656;-65
2023/03/30 00:52:08;;;;;;;8.80;2.77;;;19.40;54.20;;;;;;6212642;23;20213;-64
2023/03/30 00:54:37;;;;;;;5.40;2.80;;;19.40;54.30;;;;;;6213327;23;20182;-64
2023/03/30 00:57:05;;;;;;;6.77;2.60;;;19.40;54.30;;;;;;6212772;23;20178;-65
2023/03/30 00:59:32;;;;;;;6.57;3.50;;;19.40;54.30;;;;;;6213335;23;20182;-65
2023/03/30 01:01:59;;;;;;;6.73;2.70;;;19.40;54.30;;;;;;6213125;23;20284;-65
2023/03/30 01:04:27;;;;;;;10.00;3.03;;;19.30;54.50;;;;;;6213206;23;20202;-65
2023/03/30 01:06:56;;;;;;;7.33;2.83;;;19.30;54.50;;;;;;6213363;23;20192;-65
2023/03/30 01:09:25;;;;;;;6.37;3.73;;;19.30;54.70;;;;;;6213413;23;20184;-64
2023/03/30 01:11:53;;;;;;;9.90;4.03;;;19.20;54.80;;;;;;6212566;23;20500;-64
2023/03/30 01:14:20;;;;;;;7.47;2.50;;;19.20;54.90;;;;;;6213113;23;20249;-65
2023/03/30 01:16:55;;;;;;;5.40;2.67;;;19.20;55.00;;;;;;6212920;23;20181;-65
2023/03/30 01:19:51;;;;;;;6.50;2.60;;;19.20;55.20;;;;;;6213432;23;20240;-65
2023/03/30 01:22:51;;;;;;;6.53;2.47;;;19.20;55.10;;;;;;6213178;23;20168;-64
2023/03/30 01:25:46;;;;;;;3.90;2.23;;;19.10;55.40;;;;;;6194944;23;20232;-64
2023/03/30 01:28:25;;;;;;;6.37;2.53;;;19.10;55.70;;;;;;6212893;23;20206;-66
2023/03/30 01:31:14;;;;;;;5.90;2.53;;;19.00;55.80;;;;;;6212718;23;20244;-65
2023/03/30 01:34:01;;;;;;;7.93;2.53;;;18.90;56.00;;;;;;6212993;23;20209;-65
2023/03/30 01:36:58;;;;;;;10.23;3.20;;;18.90;56.20;;;;;;6213086;23;20515;-64
2023/03/30 01:39:45;;;;;;;8.23;2.33;;;18.90;56.50;;;;;;6213010;23;20467;-65
2023/03/30 01:42:21;;;;;;;10.30;3.13;;;18.90;56.50;;;;;;6212547;23;20566;-65
2023/03/30 01:44:55;;;;;;;4.60;2.33;;;18.90;56.60;;;;;;6213540;23;20162;-64
2023/03/30 01:47:27;;;;;;;7.47;2.70;;;19.00;56.70;;;;;;6213031;23;20196;-64
2023/03/30 01:50:00;;;;;;;7.67;2.90;;;19.00;56.70;;;;;;6213144;23;20206;-66
2023/03/30 01:52:35;;;;;;;8.47;2.87;;;19.00;56.80;;;;;;6212798;23;20186;-66
2023/03/30 01:55:10;;;;;;;10.77;3.03;;;19.00;56.80;;;;;;6212769;23;20393;-64
2023/03/30 01:57:43;;;;;;;5.33;2.70;;;19.00;56.90;;;;;;6213273;23;20168;-64
2023/03/30 02:00:14;;;;;;;5.43;2.83;;;19.00;56.90;;;;;;6212791;23;20162;-65
2023/03/30 02:02:45;;;;;;;7.33;2.87;;;19.00;57.00;;;;;;6212828;23;20221;-64
2023/03/30 02:05:16;;;;;;;10.77;2.70;;;19.00;57.00;;;;;;6212794;23;20480;-65
2023/03/30 02:07:46;;;;;;;9.20;3.20;;;19.00;57.00;;;;;;6212751;23;20162;-65
2023/03/30 02:10:16;;;;;;;6.47;2.90;;;19.00;57.00;;;;;;6212610;23;20178;-66
2023/03/30 02:12:44;;;;;;;8.67;3.03;;;19.00;57.10;;;;;;6212275;23;20208;-66
2023/03/30 02:15:14;;;;;;;8.47;3.53;;;19.10;57.40;;;;;;6212639;23;20182;-65
2023/03/30 02:17:44;;;;;;;9.23;3.00;;;19.10;59.00;;;;;;6212422;23;20178;-65
2023/03/30 02:20:12;;;;;;;6.77;2.60;;;19.10;59.90;;;;;;6212957;23;20212;-65
2023/03/30 02:22:39;;;;;;;11.10;3.00;;;19.10;61.50;;;;;;6214710;23;20178;-65
2023/03/30 02:25:07;;;;;;;8.90;2.97;;;19.10;62.20;;;;;;6214286;23;20405;-65
2023/03/30 02:27:36;;;;;;;10.90;3.03;;;19.00;62.50;;;;;;6214394;23;20201;-65
2023/03/30 02:30:06;;;;;;;8.53;3.27;;;18.90;63.00;;;;;;6214375;23;20627;-64
2023/03/30 02:32:41;;;;;;;8.33;3.63;;;18.90;63.20;;;;;;6214210;23;20264;-66
2023/03/30 02:35:21;;;;;;;11.93;3.03;;;18.90;63.60;;;;;;6214826;23;20201;-65
2023/03/30 02:38:21;;;;;;;9.63;3.13;;;18.90;64.00;;;;;;6214468;23;20216;-66
2023/03/30 02:40:57;;;;;;;13.60;4.03;;;18.90;64.50;;;;;;6214317;23;20170;-66
2023/03/30 02:43:44;;;;;;;8.40;3.53;;;18.90;64.70;;;;;;6214241;23;20208;-66
2023/03/30 02:46:35;;;;;;;11.80;3.73;;;18.90;65.00;;;;;;6214344;23;20424;-66
2023/03/30 02:49:14;;;;;;;5.73;2.47;;;19.00;65.30;;;;;;6214682;23;20166;-65
2023/03/30 02:51:45;;;;;;;9.73;3.13;;;19.00;65.50;;;;;;6213958;23;20209;-65
2023/03/30 02:54:23;;;;;;;10.90;3.20;;;19.00;65.50;;;;;;6213698;23;20186;-65
2023/03/30 02:56:58;;;;;;;8.83;3.50;;;19.00;65.90;;;;;;6214610;23;20490;-66
2023/03/30 02:59:32;;;;;;;9.73;2.87;;;19.00;66.00;;;;;;6214381;23;20436;-65
2023/03/30 03:02:05;;;;;;;11.20;3.53;;;19.00;66.30;;;;;;6214144;23;20219;-66
2023/03/30 03:04:33;;;;;;;7.63;3.20;;;19.00;66.50;;;;;;6214487;23;20192;-66
2023/03/30 03:07:01;;;;;;;9.27;3.27;;;19.00;66.40;;;;;;6213278;23;20467;-65
2023/03/30 03:09:28;;;;;;;14.57;3.73;;;19.00;66.40;;;;;;6213965;23;20236;-66
2023/03/30 03:11:56;;;;;;;8.47;3.97;;;19.00;67.90;;;;;;6213836;23;20185;-67
2023/03/30 03:14:25;;;;;;;7.27;3.07;;;18.90;67.50;;;;;;6213963;23;20202;-66
2023/03/30 03:16:54;;;;;;;8.70;3.20;;;18.90;67.50;;;;;;6213507;23;20186;-66
2023/03/30 03:19:20;;;;;;;7.83;3.93;;;18.90;67.70;;;;;;6214175;23;20408;-66
2023/03/30 03:21:47;;;;;;;8.33;3.23;;;18.90;69.00;;;;;;6213498;23;20409;-67
2023/03/30 03:24:16;;;;;;;15.93;6.13;;;18.90;68.80;;;;;;6214434;23;20184;-64
2023/03/30 03:26:43;;;;;;;14.03;7.23;;;18.90;69.10;;;;;;6213782;23;20260;-65
2023/03/30 03:29:10;;;;;;;17.27;7.17;;;18.80;69.40;;;;;;6213843;23;20184;-66
2023/03/30 03:31:37;;;;;;;15.00;6.13;;;18.80;71.20;;;;;;6213754;23;20260;-65
2023/03/30 03:34:05;;;;;;;10.07;4.53;;;18.80;71.00;;;;;;6213672;23;20434;-66
2023/03/30 03:36:32;;;;;;;10.90;4.90;;;18.70;71.40;;;;;;6213467;23;20252;-65
2023/03/30 03:38:59;;;;;;;9.57;4.80;;;18.70;72.00;;;;;;6214394;23;20409;-66
2023/03/30 03:41:26;;;;;;;11.80;5.23;;;18.60;71.70;;;;;;6213775;23;20771;-65
2023/03/30 03:43:53;;;;;;;11.37;4.63;;;18.60;72.00;;;;;;6214287;23;20557;-65
2023/03/30 03:46:20;;;;;;;12.80;4.97;;;18.60;72.10;;;;;;6214028;23;20451;-65
2023/03/30 03:48:47;;;;;;;11.20;5.27;;;18.50;72.10;;;;;;6213708;23;20404;-66
2023/03/30 03:51:15;;;;;;;11.00;4.60;;;18.50;72.40;;;;;;6213180;23;20902;-66
2023/03/30 03:53:42;;;;;;;10.47;3.87;;;18.50;72.80;;;;;;6213674;23;20424;-66
2023/03/30 03:56:10;;;;;;;7.50;4.53;;;18.40;72.30;;;;;;6213723;23;20428;-64
2023/03/30 03:58:37;;;;;;;7.07;3.90;;;18.40;72.70;;;;;;6213686;23;20500;-65
2023/03/30 04:01:04;;;;;;;11.17;3.97;;;18.40;73.00;;;;;;6213705;23;20511;-66
2023/03/30 04:03:30;;;;;;;9.17;3.87;;;18.30;73.30;;;;;;6213586;23;20456;-65
2023/03/30 04:06:01;;;;;;;7.87;3.37;;;18.30;73.50;;;;;;6213369;23;20224;-66
2023/03/30 04:08:30;;;;;;;10.63;3.10;;;18.30;73.60;;;;;;6213551;23;20405;-65
2023/03/30 04:11:06;;;;;;;8.67;3.27;;;18.20;73.30;;;;;;6213221;23;20443;-65
2023/03/30 04:13:33;;;;;;;11.00;3.80;;;18.30;73.70;;;;;;6213469;23;20400;-66
2023/03/30 04:16:00;;;;;;;8.80;3.67;;;18.20;73.50;;;;;;6213384;23;20408;-65
2023/03/30 04:18:30;;;;;;;7.83;3.13;;;18.30;73.80;;;;;;6213151;23;21009;-65
2023/03/30 04:20:58;;;;;;;7.77;3.13;;;18.20;73.80;;;;;;6213195;23;20416;-65
2023/03/30 04:23:30;;;;;;;8.63;3.17;;;18.20;73.90;;;;;;6213759;23;20436;-65
2023/03/30 04:26:00;;;;;;;8.60;3.47;;;18.20;73.90;;;;;;6213531;23;20449;-65
2023/03/30 04:28:28;;;;;;;9.20;3.43;;;18.10;74.00;;;;;;6213550;23;20707;-66
2023/03/30 04:30:58;;;;;;;6.57;3.13;;;18.10;74.00;;;;;;6213401;23;20797;-66
2023/03/30 04:33:25;;;;;;;9.73;3.37;;;18.10;74.20;;;;;;6213152;23;20515;-66
2023/03/30 04:35:52;;;;;;;8.33;3.73;;;18.10;74.10;;;;;;6212089;23;20415;-65
2023/03/30 04:38:21;;;;;;;9.83;3.70;;;18.10;74.00;;;;;;6212241;23;20232;-66
2023/03/30 04:40:48;;;;;;;8.47;3.70;;;18.10;73.90;;;;;;6212727;23;20178;-66
2023/03/30 04:43:18;;;;;;;8.77;3.40;;;18.10;74.00;;;;;;6213042;23;20451;-66
2023/03/30 04:45:49;;;;;;;7.60;3.37;;;18.10;74.20;;;;;;6213281;23;20413;-66
2023/03/30 04:48:15;;;;;;;9.27;3.63;;;18.00;74.20;;;;;;6212625;23;20433;-66
2023/03/30 04:50:43;;;;;;;8.70;3.80;;;18.00;74.10;;;;;;6213573;23;20409;-66
2023/03/30 04:53:10;;;;;;;8.20;3.47;;;18.00;74.40;;;;;;6213249;23;20437;-65
2023/03/30 04:55:37;;;;;;;10.57;3.53;;;17.90;74.20;;;;;;6212582;23;20512;-65
2023/03/30 04:58:04;;;;;;;7.60;3.60;;;18.00;74.50;;;;;;6213120;23;20497;-65
2023/03/30 05:00:33;;;;;;;10.90;3.77;;;18.00;74.60;;;;;;6213305;23;20430;-65
2023/03/30 05:03:00;;;;;;;10.83;3.57;;;17.90;74.80;;;;;;6212377;23;20520;-65
2023/03/30 05:05:27;;;;;;;10.47;3.47;;;17.90;75.10;;;;;;6213259;23;20790;-64
2023/03/30 05:07:53;;;;;;;11.83;3.87;;;18.00;75.60;;;;;;6212866;23;20507;-65
2023/03/30 05:10:20;;;;;;;6.80;3.37;;;17.90;75.80;;;;;;6212468;23;20943;-64
2023/03/30 05:12:47;;;;;;;8.53;3.53;;;17.90;76.20;;;;;;6213016;23;20524;-65
2023/03/30 05:15:14;;;;;;;8.87;3.80;;;17.90;76.60;;;;;;6213173;23;20412;-65
2023/03/30 05:17:43;;;;;;;10.13;4.17;;;17.80;76.90;;;;;;6212496;23;20747;-66
2023/03/30 05:20:11;;;;;;;7.10;3.37;;;17.80;77.20;;;;;;6213047;23;20794;-65
2023/03/30 05:22:38;;;;;;;10.70;3.57;;;17.80;77.50;;;;;;6212440;23;20413;-65
2023/03/30 05:25:06;;;;;;;12.80;4.00;;;17.80;77.90;;;;;;6213036;23;20404;-66
2023/03/30 05:27:32;;;;;;;10.60;3.63;;;17.60;78.70;;;;;;6212879;23;20444;-65
2023/03/30 05:29:59;;;;;;;9.23;3.70;;;17.30;79.50;;;;;;6213091;23;20411;-66
2023/03/30 05:32:26;;;;;;;10.27;4.00;;;17.20;80.20;;;;;;6212597;23;20405;-65
2023/03/30 05:34:55;;;;;;;9.43;3.77;;;17.20;80.80;;;;;;6213163;23;20761;-65
2023/03/30 05:37:22;;;;;;;10.50;5.50;;;17.00;81.20;;;;;;6212791;23;20488;-65
2023/03/30 05:39:49;;;;;;;11.13;5.10;;;16.90;81.90;;;;;;6212608;23;20464;-65
2023/03/30 05:42:16;;;;;;;11.80;4.87;;;16.90;82.70;;;;;;6212913;23;20897;-65
2023/03/30 05:44:43;;;;;;;11.20;3.87;;;16.90;83.20;;;;;;6212867;23;20408;-68
2023/03/30 05:47:10;;;;;;;11.53;4.53;;;16.90;82.90;;;;;;6212249;23;20455;-65
2023/03/30 05:49:36;;;;;;;16.97;9.57;;;17.10;82.70;;;;;;6213265;23;20527;-65
2023/03/30 05:52:05;;;;;;;13.83;8.43;;;17.10;82.20;;;;;;6212779;23;20523;-65
2023/03/30 05:54:32;;;;;;;18.07;8.87;;;17.20;82.20;;;;;;6213001;23;20746;-65
2023/03/30 05:56:59;;;;;;;19.33;12.63;;;17.20;81.90;;;;;;6214859;23;20484;-66
2023/03/30 05:59:26;;;;;;;17.00;10.50;;;17.30;82.00;;;;;;6214419;23;20439;-66
2023/03/30 06:01:54;;;;;;;29.37;21.03;;;17.30;81.70;;;;;;6213761;23;20440;-66
2023/03/30 06:04:21;;;;;;;28.17;17.17;;;17.40;81.50;;;;;;6214922;23;20409;-66
2023/03/30 06:06:48;;;;;;;20.53;11.30;;;17.40;81.40;;;;;;6214319;23;20527;-64
2023/03/30 06:09:16;;;;;;;13.60;7.90;;;17.40;81.40;;;;;;6214918;23;20436;-66
2023/03/30 06:11:43;;;;;;;10.40;4.70;;;17.50;81.60;;;;;;6214492;23;20408;-67
2023/03/30 06:14:10;;;;;;;9.37;3.97;;;17.40;81.70;;;;;;6214637;23;20588;-66
2023/03/30 06:16:37;;;;;;;11.33;3.47;;;17.40;81.70;;;;;;6214233;23;20409;-66
2023/03/30 06:19:04;;;;;;;8.00;3.90;;;17.40;81.70;;;;;;6214639;23;20468;-66
2023/03/30 06:21:31;;;;;;;9.67;3.90;;;17.40;81.70;;;;;;6214091;23;20436;-66
2023/03/30 06:23:58;;;;;;;11.20;3.83;;;17.50;81.80;;;;;;6214560;23;20412;-66
2023/03/30 06:26:26;;;;;;;12.83;4.27;;;17.50;81.50;;;;;;6214208;23;20492;-66
2023/03/30 06:28:53;;;;;;;13.00;4.83;;;17.50;81.70;;;;;;6214041;23;20435;-66
2023/03/30 06:31:20;;;;;;;12.63;4.30;;;17.50;82.10;;;;;;6213638;23;20444;-66
2023/03/30 06:33:49;;;;;;;11.53;4.10;;;17.50;82.10;;;;;;6214465;23;20407;-66
2023/03/30 06:36:16;;;;;;;9.03;4.17;;;17.50;82.10;;;;;;6214198;23;20467;-65
2023/03/30 06:38:43;;;;;;;15.63;4.17;;;17.40;82.20;;;;;;6214037;23;20405;-65
2023/03/30 06:41:11;;;;;;;11.80;4.37;;;17.40;82.30;;;;;;6214233;23;20433;-68
2023/03/30 06:43:40;;;;;;;10.37;4.13;;;17.40;82.50;;;;;;6214211;23;20435;-67
2023/03/30 06:46:08;;;;;;;11.27;4.33;;;17.40;82.80;;;;;;6214399;23;20762;-68
2023/03/30 06:48:35;;;;;;;12.90;4.50;;;17.40;82.80;;;;;;6214333;23;20455;-67
2023/03/30 06:51:02;;;;;;;11.40;4.23;;;17.40;83.30;;;;;;6214440;23;20413;-66
2023/03/30 06:53:29;;;;;;;9.83;4.00;;;17.40;82.40;;;;;;6214162;23;20428;-66
2023/03/30 06:55:57;;;;;;;11.40;4.50;;;17.40;82.40;;;;;;6214326;23;20490;-66
2023/03/30 06:58:26;;;;;;;11.20;4.40;;;17.50;82.70;;;;;;6213569;23;20887;-67
2023/03/30 07:00:55;;;;;;;7.17;4.10;;;17.40;82.90;;;;;;6213446;23;20444;-67
2023/03/30 07:03:22;;;;;;;15.97;4.57;;;17.40;82.90;;;;;;6213911;23;20413;-67
2023/03/30 07:05:51;;;;;;;9.53;4.30;;;17.40;83.10;;;;;;6213930;23;20440;-67
2023/03/30 07:08:20;;;;;;;11.73;4.83;;;17.30;83.50;;;;;;6213161;23;20443;-66
2023/03/30 07:10:48;;;;;;;13.87;4.80;;;17.20;83.80;;;;;;6213212;23;20721;-67
2023/03/30 07:13:15;;;;;;;11.17;4.67;;;17.20;84.10;;;;;;6213168;23;20413;-65
2023/03/30 07:15:42;;;;;;;9.37;4.20;;;17.10;84.50;;;;;;6213071;23;20834;-66
2023/03/30 07:18:11;;;;;;;9.57;4.00;;;17.00;84.70;;;;;;6212855;23;20405;-65
2023/03/30 07:20:38;;;;;;;12.80;4.40;;;17.00;85.40;;;;;;6213276;23;20512;-66
2023/03/30 07:23:05;;;;;;;9.43;4.17;;;17.00;85.30;;;;;;6213048;23;20487;-65
2023/03/30 07:25:32;;;;;;;12.10;4.30;;;17.00;85.50;;;;;;6213580;23;20883;-67
2023/03/30 07:28:00;;;;;;;10.87;4.40;;;17.00;85.80;;;;;;6212813;23;20444;-65
2023/03/30 07:30:27;;;;;;;12.67;4.43;;;16.90;85.80;;;;;;6213139;23;20413;-67
2023/03/30 07:32:55;;;;;;;12.23;5.27;;;17.00;86.00;;;;;;6213012;23;20512;-66
2023/03/30 07:35:23;;;;;;;8.33;4.13;;;17.00;86.10;;;;;;6212903;23;20409;-67
2023/03/30 07:37:50;;;;;;;9.80;4.30;;;17.00;86.70;;;;;;6212985;23;20409;-65
2023/03/30 07:40:17;;;;;;;10.57;4.27;;;17.00;86.60;;;;;;6213315;23;20433;-67
2023/03/30 07:42:44;;;;;;;13.63;4.40;;;17.00;86.70;;;;;;6212519;23;20405;-66
2023/03/30 07:45:12;;;;;;;7.27;4.40;;;17.10;87.20;;;;;;6213180;23;20717;-65
2023/03/30 07:47:39;;;;;;;11.63;4.43;;;17.00;86.80;;;;;;6213084;23;20444;-66
2023/03/30 07:50:07;;;;;;;10.50;5.20;;;17.00;87.10;;;;;;6212608;23;20487;-67
2023/03/30 07:52:35;;;;;;;11.97;4.20;;;17.00;87.30;;;;;;6213496;23;20439;-66
2023/03/30 07:55:03;;;;;;;11.97;4.60;;;16.90;87.20;;;;;;6214042;23;20459;-67
2023/03/30 07:57:29;;;;;;;6.30;3.73;;;16.80;87.00;;;;;;6213077;23;20429;-66
2023/03/30 07:59:56;;;;;;;6.97;3.70;;;16.80;87.10;;;;;;6213611;23;20492;-67
2023/03/30 08:02:23;;;;;;;7.57;3.80;;;16.80;86.80;;;;;;6213241;23;20508;-66
2023/03/30 08:04:51;;;;;;;7.40;3.70;;;16.80;87.10;;;;;;6213398;23;20399;-66
2023/03/30 08:07:18;;;;;;;9.63;3.60;;;16.80;86.80;;;;;;6212795;23;20452;-66
2023/03/30 08:09:46;;;;;;;7.77;3.80;;;16.80;87.00;;;;;;6213083;23;20457;-65
2023/03/30 08:12:13;;;;;;;6.47;3.03;;;16.80;87.30;;;;;;6211867;23;20504;-67
2023/03/30 08:14:40;;;;;;;8.80;3.20;;;16.90;86.60;;;;;;6212760;23;20405;-66
2023/03/30 08:17:07;;;;;;;6.73;3.37;;;16.80;86.40;;;;;;6212901;23;20408;-67
2023/03/30 08:19:34;;;;;;;8.53;3.77;;;16.80;86.50;;;;;;6212006;23;20487;-68
2023/03/30 08:22:01;;;;;;;8.43;3.50;;;16.90;86.60;;;;;;6212878;23;20459;-67
2023/03/30 08:24:29;;;;;;;4.90;2.93;;;16.90;86.50;;;;;;6213459;23;20420;-66
2023/03/30 08:26:57;;;;;;;4.10;3.00;;;16.90;86.30;;;;;;6212879;23;20440;-68
2023/03/30 08:29:24;;;;;;;6.97;3.17;;;17.00;86.30;;;;;;6212558;23;20409;-67
2023/03/30 08:31:51;;;;;;;8.60;3.13;;;17.00;86.00;;;;;;6212046;23;20411;-67
2023/03/30 08:34:18;;;;;;;5.40;2.93;;;17.10;85.50;;;;;;6212424;23;20411;-67
2023/03/30 08:36:45;;;;;;;4.73;2.90;;;17.10;85.60;;;;;;6212949;23;20741;-65
2023/03/30 08:39:12;;;;;;;6.70;3.13;;;17.30;85.70;;;;;;6212465;23;20512;-65
2023/03/30 08:41:53;;;;;;;5.23;2.80;;;17.40;85.70;;;;;;6211663;23;20903;-66
2023/03/30 08:44:31;;;;;;;7.10;3.07;;;17.50;86.20;;;;;;6212776;23;20396;-67
2023/03/30 08:46:59;;;;;;;5.13;2.60;;;17.70;85.80;;;;;;6212525;23;20459;-67
2023/03/30 08:49:26;;;;;;;5.33;2.50;;;17.80;85.40;;;;;;6212645;23;20429;-67
2023/03/30 08:51:55;;;;;;;6.40;2.73;;;18.00;84.80;;;;;;6212016;23;20416;-66
2023/03/30 08:54:24;;;;;;;7.07;3.20;;;18.10;85.00;;;;;;6212617;23;20497;-66
2023/03/30 08:57:00;;;;;;;2.70;1.97;;;18.20;84.20;;;;;;6211620;23;20413;-67
2023/03/30 08:59:39;;;;;;;5.27;2.60;;;18.20;83.80;;;;;;6212127;23;20162;-66
2023/03/30 09:02:16;;;;;;;8.80;6.20;;;18.30;82.80;;;;;;6211976;23;20431;-67
2023/03/30 09:05:00;;;;;;;6.80;2.40;;;18.20;82.00;;;;;;6212672;23;20165;-67
2023/03/30 09:07:31;;;;;;;8.33;6.30;;;18.10;82.00;;;;;;6212210;23;20433;-65
2023/03/30 09:09:59;;;;;;;6.17;4.67;;;18.00;82.50;;;;;;6211897;23;20451;-65
2023/03/30 09:12:36;;;;;;;6.83;5.03;;;17.90;82.50;;;;;;6212215;23;20929;-67
2023/03/30 09:15:07;;;;;;;7.40;6.33;;;17.90;83.20;;;;;;6212305;23;20427;-66
2023/03/30 09:17:39;;;;;;;6.93;4.47;;;17.90;84.10;;;;;;6212338;23;20464;-67
2023/03/30 09:20:12;;;;;;;10.73;8.73;;;17.80;84.10;;;;;;6213179;23;20606;-66
2023/03/30 09:22:41;;;;;;;13.33;10.93;;;17.80;84.40;;;;;;6213460;23;20166;-65
2023/03/30 09:25:16;;;;;;;10.13;7.90;;;17.70;84.50;;;;;;6213279;23;20213;-66
2023/03/30 09:27:51;;;;;;;7.13;4.90;;;17.60;85.00;;;;;;6212795;23;20217;-65
2023/03/30 09:30:24;;;;;;;9.57;7.73;;;17.50;85.50;;;;;;6213998;23;20396;-67
2023/03/30 09:32:59;;;;;;;11.07;7.33;;;17.50;86.40;;;;;;6215383;23;20516;-66
2023/03/30 09:35:35;;;;;;;10.83;7.80;;;17.50;87.20;;;;;;6215700;23;20396;-66
2023/03/30 09:38:02;;;;;;;6.23;3.40;;;17.50;86.80;;;;;;6215037;23;20952;-67
2023/03/30 09:40:43;;;;;;;7.23;3.70;;;17.60;86.70;;;;;;6214925;23;20444;-65
2023/03/30 09:43:14;;;;;;;5.43;3.20;;;17.60;86.70;;;;;;6215348;23;20742;-65
2023/03/30 09:45:44;;;;;;;5.90;3.17;;;17.70;86.70;;;;;;6215389;23;20435;-66
2023/03/30 09:48:11;;;;;;;8.30;3.67;;;17.70;85.80;;;;;;6215290;23;20431;-65
2023/03/30 09:50:41;;;;;;;5.67;3.27;;;17.70;85.20;;;;;;6215433;23;20484;-66
2023/03/30 09:53:19;;;;;;;9.67;6.87;;;17.60;84.90;;;;;;6214479;23;20898;-66
2023/03/30 09:55:58;;;;;;;10.37;6.70;;;17.50;85.40;;;;;;6215133;23;20480;-66
2023/03/30 09:58:28;;;;;;;7.87;4.40;;;17.40;84.90;;;;;;6215212;23;20433;-67
2023/03/30 10:01:07;;;;;;;4.67;3.17;;;17.40;85.10;;;;;;6215212;23;20388;-65
2023/03/30 10:03:35;;;;;;;5.07;3.17;;;17.40;85.10;;;;;;6215257;23;20401;-65
2023/03/30 10:06:08;;;;;;;8.17;3.93;;;17.50;84.90;;;;;;6215169;23;20436;-65
2023/03/30 10:08:41;;;;;;;5.73;3.17;;;17.60;85.10;;;;;;6214777;23;20759;-66
2023/03/30 10:11:08;;;;;;;4.73;2.90;;;17.70;84.80;;;;;;6215103;23;20472;-65
2023/03/30 10:13:38;;;;;;;7.63;3.40;;;17.70;84.70;;;;;;6214767;23;20166;-66
2023/03/30 10:16:12;;;;;;;7.53;3.30;;;17.70;84.70;;;;;;6215046;23;20493;-66
2023/03/30 10:18:42;;;;;;;5.40;2.67;;;17.80;84.10;;;;;;6214929;23;20452;-65
2023/03/30 10:21:18;;;;;;;5.30;2.90;;;17.80;84.10;;;;;;6215248;23;20487;-67
2023/03/30 10:23:46;;;;;;;4.60;3.43;;;17.90;82.90;;;;;;6214925;23;20389;-66
2023/03/30 10:26:18;;;;;;;10.47;6.30;;;17.90;82.10;;;;;;6215062;23;20749;-67
2023/03/30 10:28:56;;;;;;;6.40;3.60;;;18.00;81.30;;;;;;6214643;23;20741;-66
2023/03/30 10:31:26;;;;;;;5.87;3.90;;;18.00;79.80;;;;;;6214530;23;20486;-65
2023/03/30 10:33:56;;;;;;;6.63;4.93;;;18.20;80.00;;;;;;6214815;23;20408;-67
2023/03/30 10:36:29;;;;;;;4.63;2.67;;;18.30;78.70;;;;;;6213822;23;20443;-65
2023/03/30 10:39:03;;;;;;;5.30;3.40;;;18.50;78.30;;;;;;6214475;23;20166;-67
2023/03/30 10:41:30;;;;;;;6.67;3.80;;;18.60;77.00;;;;;;6213457;23;20162;-65
2023/03/30 10:43:57;;;;;;;9.10;3.20;;;18.70;77.10;;;;;;6214598;23;20289;-66
2023/03/30 10:46:25;;;;;;;6.03;3.70;;;18.90;76.10;;;;;;6215073;23;20177;-67
2023/03/30 10:49:01;;;;;;;6.27;4.27;;;18.80;75.70;;;;;;6214652;23;20745;-66
2023/03/30 10:51:39;;;;;;;9.07;3.83;;;18.70;74.50;;;;;;6213754;23;20429;-65
2023/03/30 10:54:12;;;;;;;7.30;5.23;;;18.70;75.80;;;;;;6214987;23;20198;-65
2023/03/30 10:56:43;;;;;;;10.03;5.40;;;18.70;74.90;;;;;;6214608;23;20244;-66
2023/03/30 10:59:44;;;;;;;10.53;6.53;;;18.60;75.00;;;;;;6214759;23;20660;-67
2023/03/30 11:02:35;;;;;;;6.97;3.97;;;18.60;75.90;;;;;;6214469;23;20197;-66
2023/03/30 11:05:08;;;;;;;6.57;4.50;;;18.70;75.60;;;;;;6214754;23;20754;-66
2023/03/30 11:07:41;;;;;;;5.53;4.00;;;18.60;76.00;;;;;;6214103;23;20773;-65
2023/03/30 11:10:15;;;;;;;6.50;3.63;;;18.60;76.10;;;;;;6214815;23;20519;-65
2023/03/30 11:12:47;;;;;;;9.97;5.40;;;18.50;76.10;;;;;;6214376;23;20161;-65
2023/03/30 11:15:19;;;;;;;12.20;5.10;;;18.60;76.70;;;;;;6214673;23;20162;-66
2023/03/30 11:17:54;;;;;;;6.67;3.97;;;18.60;77.10;;;;;;6214356;23;20224;-66
2023/03/30 11:20:27;;;;;;;8.07;3.80;;;18.70;77.00;;;;;;6214036;23;20389;-66
2023/03/30 11:23:01;;;;;;;4.37;3.10;;;18.80;76.70;;;;;;6213978;23;20206;-66
2023/03/30 11:25:32;;;;;;;7.87;3.87;;;19.10;77.10;;;;;;6214719;23;20526;-66
2023/03/30 11:28:07;;;;;;;4.73;3.10;;;19.20;75.60;;;;;;6213926;23;20754;-66
2023/03/30 11:30:36;;;;;;;11.83;6.20;;;19.30;75.40;;;;;;6214868;23;20162;-65
2023/03/30 11:33:16;;;;;;;6.50;3.40;;;19.40;74.80;;;;;;6214395;23;20556;-66
2023/03/30 11:35:46;;;;;;;7.37;4.87;;;19.50;73.80;;;;;;6214002;23;20212;-67
2023/03/30 11:38:17;;;;;;;4.20;3.20;;;19.60;73.80;;;;;;6213984;23;20174;-66
2023/03/30 11:40:46;;;;;;;6.77;3.30;;;19.50;72.30;;;;;;6214221;23;20256;-66
2023/03/30 11:43:15;;;;;;;9.57;5.10;;;19.50;71.40;;;;;;6214257;23;20239;-65
2023/03/30 11:45:49;;;;;;;4.23;2.93;;;19.50;69.50;;;;;;6213531;23;20181;-65
2023/03/30 11:48:37;;;;;;;7.93;3.07;;;19.60;71.60;;;;;;6213949;23;20220;-66
2023/03/30 11:51:15;;;;;;;8.97;3.47;;;19.60;70.30;;;;;;6213990;23;20212;-66
2023/03/30 11:53:53;;;;;;;9.63;4.37;;;19.70;70.60;;;;;;6213573;23;20201;-65
2023/03/30 11:56:29;;;;;;;6.07;3.73;;;19.80;70.10;;;;;;6214301;23;20177;-66
2023/03/30 11:59:04;;;;;;;7.23;4.00;;;19.90;70.30;;;;;;6213809;23;20244;-66
2023/03/30 12:01:45;;;;;;;9.30;4.27;;;20.00;70.20;;;;;;6213725;23;20577;-66
2023/03/30 12:04:16;;;;;;;5.57;3.20;;;20.10;68.50;;;;;;6213537;23;20166;-65
2023/03/30 12:06:51;;;;;;;6.03;3.40;;;20.10;69.50;;;;;;6214043;23;20170;-66
2023/03/30 12:09:24;;;;;;;9.10;4.60;;;20.10;68.60;;;;;;6213290;23;20185;-66
2023/03/30 12:11:55;;;;;;;7.27;3.17;;;20.40;68.70;;;;;;6213943;23;20193;-65
2023/03/30 12:14:39;;;;;;;6.23;4.80;;;20.60;68.20;;;;;;6214015;23;20568;-66
2023/03/30 12:17:13;;;;;;;6.07;3.27;;;20.60;67.00;;;;;;6213875;23;20767;-65
2023/03/30 12:19:47;;;;;;;8.20;3.13;;;20.70;68.00;;;;;;6211829;23;20725;-64
2023/03/30 12:22:16;;;;;;;5.00;3.23;;;20.70;67.00;;;;;;6213955;23;20193;-66
2023/03/30 12:24:49;;;;;;;4.93;2.67;;;20.60;67.40;;;;;;6213782;23;20186;-65
2023/03/30 12:27:16;;;;;;;7.23;3.97;;;20.30;68.40;;;;;;6213830;23;20812;-65
2023/03/30 12:29:44;;;;;;;6.10;4.90;;;20.10;69.40;;;;;;6214031;23;20239;-67
2023/03/30 12:32:22;;;;;;;4.73;3.20;;;19.90;71.30;;;;;;6213309;23;20181;-67
2023/03/30 12:34:50;;;;;;;9.80;3.70;;;19.70;72.50;;;;;;6213605;23;20200;-65
2023/03/30 12:37:21;;;;;;;4.17;3.13;;;19.60;74.00;;;;;;6213731;23;20190;-66
2023/03/30 12:39:53;;;;;;;6.40;3.43;;;19.40;74.60;;;;;;6213940;23;20281;-66
2023/03/30 12:42:34;;;;;;;5.80;2.50;;;19.10;75.00;;;;;;6214064;23;20599;-66
2023/03/30 12:45:31;;;;;;;6.87;3.97;;;18.90;73.80;;;;;;6213350;23;20872;-66
2023/03/30 12:48:13;;;;;;;8.57;5.23;;;18.60;73.50;;;;;;6194406;23;20500;-66
2023/03/30 12:50:51;;;;;;;4.20;3.70;;;18.40;75.10;;;;;;6213090;23;20190;-67
2023/03/30 12:53:54;;;;;;;7.70;3.60;;;18.50;75.70;;;;;;6213164;23;20416;-67
2023/03/30 12:56:31;;;;;;;8.27;4.40;;;18.50;76.30;;;;;;6210801;23;20423;-66
2023/03/30 12:59:40;;;;;;;6.17;3.20;;;18.40;75.50;;;;;;6213387;23;20479;-67
2023/03/30 13:02:38;;;;;;;8.13;3.70;;;18.40;76.20;;;;;;6185418;22;20201;-66
2023/03/30 13:05:17;;;;;;;6.17;4.13;;;18.40;75.80;;;;;;6210008;23;20212;-66